createdAt,value
2022-12-04T00:01:32.879Z,16.07
2022-12-04T00:04:01.201Z,14.47
2022-12-04T00:06:29.017Z,14.37
2022-12-04T00:08:56.457Z,13.50
2022-12-04T00:11:26.697Z,15.00
2022-12-04T00:13:54.233Z,14.53
2022-12-04T00:16:24.337Z,14.53
2022-12-04T00:18:52.650Z,16.70
2022-12-04T00:21:21.012Z,16.43
2022-12-04T00:23:48.294Z,14.13
2022-12-04T00:26:18.546Z,13.43
2022-12-04T00:28:48.687Z,14.70
2022-12-04T00:31:19.190Z,14.27
2022-12-04T00:33:46.986Z,16.37
2022-12-04T00:36:17.168Z,14.23
2022-12-04T00:38:44.808Z,15.40
2022-12-04T00:41:17.889Z,14.80
2022-12-04T00:43:46.031Z,15.03
2022-12-04T00:46:13.184Z,16.37
2022-12-04T00:48:40.638Z,16.90
2022-12-04T00:51:11.004Z,16.35
2022-12-04T00:53:38.516Z,17.30
2022-12-04T00:56:08.430Z,16.63
2022-12-04T00:58:35.533Z,16.67
2022-12-04T01:01:05.480Z,15.90
2022-12-04T01:03:32.989Z,18.48
2022-12-04T01:06:04.257Z,16.83
2022-12-04T01:08:32.189Z,18.50
2022-12-04T01:10:59.471Z,17.23
2022-12-04T01:13:27.123Z,18.42
2022-12-04T01:15:57.328Z,15.85
2022-12-04T01:18:24.347Z,14.55
2022-12-04T01:20:56.627Z,15.45
2022-12-04T01:23:28.483Z,16.70
2022-12-04T01:25:57.681Z,13.80
2022-12-04T01:28:29.311Z,14.00
2022-12-04T01:31:04.774Z,14.20
2022-12-04T01:33:33.847Z,15.38
2022-12-04T01:36:02.470Z,13.20
2022-12-04T01:38:32.576Z,14.88
2022-12-04T01:40:59.729Z,15.15
2022-12-04T01:43:30.266Z,13.27
2022-12-04T01:46:01.805Z,14.47
2022-12-04T01:48:45.063Z,13.40
2022-12-04T01:51:26.233Z,14.18
2022-12-04T01:54:01.080Z,14.87
2022-12-04T01:56:41.192Z,13.77
2022-12-04T01:59:10.846Z,17.10
2022-12-04T02:01:46.538Z,14.03
2022-12-04T02:04:13.652Z,15.98
2022-12-04T02:06:44.536Z,14.23
2022-12-04T02:09:14.467Z,12.65
2022-12-04T02:12:02.848Z,14.60
2022-12-04T02:14:32.855Z,14.47
2022-12-04T02:17:29.210Z,14.37
2022-12-04T02:20:01.869Z,16.73
2022-12-04T02:25:13.084Z,15.15
2022-12-04T02:27:40.072Z,14.50
2022-12-04T02:30:16.330Z,14.35
2022-12-04T02:32:51.513Z,15.20
2022-12-04T02:35:41.045Z,16.80
2022-12-04T02:38:35.781Z,14.82
2022-12-04T02:41:23.699Z,15.40
2022-12-04T02:43:55.296Z,15.67
2022-12-04T02:46:36.781Z,14.93
2022-12-04T02:49:08.160Z,15.93
2022-12-04T02:51:38.153Z,15.98
2022-12-04T02:54:10.524Z,13.65
2022-12-04T02:56:42.872Z,16.25
2022-12-04T02:59:43.146Z,15.80
2022-12-04T03:02:21.346Z,14.10
2022-12-04T03:04:50.858Z,15.52
2022-12-04T03:07:25.281Z,15.23
2022-12-04T03:09:58.117Z,13.63
2022-12-04T03:12:43.714Z,13.10
2022-12-04T03:15:15.524Z,15.55
2022-12-04T03:18:06.120Z,14.55
2022-12-04T03:20:36.733Z,15.75
2022-12-04T03:23:13.511Z,14.35
2022-12-04T03:25:58.019Z,14.90
2022-12-04T03:28:38.735Z,14.27
2022-12-04T03:31:11.540Z,16.30
2022-12-04T03:33:46.590Z,15.00
2022-12-04T03:36:23.997Z,13.47
2022-12-04T03:39:01.636Z,12.40
2022-12-04T03:41:49.901Z,12.90
2022-12-04T03:44:31.612Z,12.20
2022-12-04T03:47:25.289Z,13.00
2022-12-04T03:50:22.283Z,15.03
2022-12-04T03:53:03.149Z,14.97
2022-12-04T03:55:40.155Z,14.70
2022-12-04T03:58:13.068Z,13.40
2022-12-04T04:00:43.004Z,13.57
2022-12-04T04:03:24.210Z,15.43
2022-12-04T04:05:58.630Z,17.38
2022-12-04T04:08:43.215Z,14.85
2022-12-04T04:11:26.374Z,13.27
2022-12-04T04:14:23.800Z,11.20
2022-12-04T04:17:18.691Z,15.23
2022-12-04T04:20:08.045Z,15.43
2022-12-04T04:22:56.333Z,13.23
2022-12-04T04:25:27.409Z,14.93
2022-12-04T04:27:56.574Z,14.30
2022-12-04T04:30:24.610Z,15.00
2022-12-04T04:32:57.529Z,14.70
2022-12-04T04:35:24.661Z,18.45
2022-12-04T04:38:54.198Z,17.27
2022-12-04T04:41:49.402Z,14.63
2022-12-04T04:44:51.781Z,16.03
2022-12-04T04:47:43.731Z,14.80
2022-12-04T04:50:12.807Z,14.43
2022-12-04T04:52:44.148Z,14.27
2022-12-04T04:55:11.312Z,15.18
2022-12-04T04:57:38.468Z,12.57
2022-12-04T05:00:17.077Z,12.60
2022-12-04T05:02:44.861Z,15.25
2022-12-04T05:05:13.359Z,13.90
2022-12-04T05:07:40.713Z,13.75
2022-12-04T05:10:08.800Z,14.23
2022-12-04T05:12:37.258Z,14.13
2022-12-04T05:15:04.708Z,14.07
2022-12-04T05:17:31.870Z,13.68
2022-12-04T05:19:59.067Z,12.95
2022-12-04T05:22:34.467Z,13.48
2022-12-04T05:25:02.437Z,13.30
2022-12-04T05:27:34.321Z,13.80
2022-12-04T05:30:01.495Z,14.53
2022-12-04T05:32:29.844Z,14.83
2022-12-04T05:34:58.223Z,14.57
2022-12-04T05:37:25.877Z,12.90
2022-12-04T05:39:54.524Z,14.10
2022-12-04T05:42:24.209Z,14.47
2022-12-04T05:44:51.214Z,15.83
2022-12-04T05:47:18.370Z,16.13
2022-12-04T05:49:45.401Z,16.33
2022-12-04T05:52:12.713Z,15.13
2022-12-04T05:54:40.337Z,14.37
2022-12-04T05:57:09.878Z,14.63
2022-12-04T05:59:37.960Z,12.40
2022-12-04T06:02:05.219Z,12.57
2022-12-04T06:04:32.544Z,16.57
2022-12-04T06:06:59.638Z,15.48
2022-12-04T06:09:26.643Z,16.27
2022-12-04T06:11:57.543Z,15.75
2022-12-04T06:14:24.673Z,14.05
2022-12-04T06:16:54.008Z,16.13
2022-12-04T06:19:24.086Z,13.63
2022-12-04T06:21:54.210Z,14.37
2022-12-04T06:24:24.220Z,14.77
2022-12-04T06:29:43.183Z,14.13
2022-12-04T06:32:10.403Z,16.42
2022-12-04T06:34:37.497Z,13.13
2022-12-04T06:37:04.577Z,14.52
2022-12-04T06:39:31.596Z,14.25
2022-12-04T06:41:58.703Z,13.52
2022-12-04T06:44:25.886Z,12.07
2022-12-04T06:46:54.773Z,12.50
2022-12-04T06:49:23.720Z,14.63
2022-12-04T06:51:50.742Z,13.93
2022-12-04T06:54:17.995Z,13.57
2022-12-04T06:56:45.039Z,12.73
2022-12-04T06:59:12.234Z,13.02
2022-12-04T07:01:39.509Z,15.40
2022-12-04T07:04:06.674Z,14.37
2022-12-04T07:06:36.129Z,15.30
2022-12-04T07:09:15.622Z,16.30
2022-12-04T07:11:43.787Z,14.32
2022-12-04T07:14:12.489Z,14.43
2022-12-04T07:16:42.010Z,14.13
2022-12-04T07:19:14.453Z,12.65
2022-12-04T07:21:42.914Z,12.55
2022-12-04T07:24:14.988Z,13.40
2022-12-04T07:26:42.289Z,12.35
2022-12-04T07:29:10.766Z,12.37
2022-12-04T07:31:38.532Z,12.13
2022-12-04T07:34:05.642Z,12.83
2022-12-04T07:36:32.891Z,12.67
2022-12-04T07:39:00.027Z,13.27
2022-12-04T07:41:28.319Z,12.40
2022-12-04T07:43:55.372Z,13.77
2022-12-04T07:46:26.436Z,15.30
2022-12-04T07:48:56.688Z,12.93
2022-12-04T07:51:29.650Z,14.43
2022-12-04T07:54:02.765Z,15.97
2022-12-04T07:56:31.212Z,14.30
2022-12-04T07:58:59.572Z,14.70
2022-12-04T08:01:26.806Z,14.37
2022-12-04T08:03:56.673Z,13.17
2022-12-04T08:06:25.203Z,13.63
2022-12-04T08:08:54.809Z,15.97
2022-12-04T08:11:25.209Z,14.17
2022-12-04T08:13:57.728Z,16.17
2022-12-04T08:16:25.983Z,15.98
2022-12-04T08:18:56.712Z,15.43
2022-12-04T08:21:25.811Z,13.90
2022-12-04T08:23:57.104Z,14.88
2022-12-04T08:26:26.238Z,13.93
2022-12-04T08:28:54.599Z,13.60
2022-12-04T08:31:27.720Z,14.33
2022-12-04T08:33:57.894Z,12.23
2022-12-04T08:36:25.075Z,15.50
2022-12-04T08:38:52.736Z,15.20
2022-12-04T08:41:26.383Z,12.93
2022-12-04T08:43:54.997Z,12.13
2022-12-04T08:46:25.695Z,12.27
2022-12-04T08:48:56.717Z,11.50
2022-12-04T08:51:27.330Z,10.53
2022-12-04T08:54:03.590Z,11.40
2022-12-04T08:56:31.639Z,11.43
2022-12-04T08:58:59.725Z,15.23
2022-12-04T09:01:28.290Z,13.83
2022-12-04T09:03:55.875Z,12.30
2022-12-04T09:06:26.612Z,13.20
2022-12-04T09:08:57.274Z,14.27
2022-12-04T09:11:27.840Z,12.65
2022-12-04T09:13:55.776Z,14.38
2022-12-04T09:16:24.650Z,12.07
2022-12-04T09:18:53.148Z,11.90
2022-12-04T09:21:24.624Z,12.85
2022-12-04T09:23:51.711Z,11.85
2022-12-04T09:26:28.529Z,11.90
2022-12-04T09:28:56.572Z,13.17
2022-12-04T09:31:24.759Z,11.57
2022-12-04T09:33:54.748Z,12.03
2022-12-04T09:36:24.203Z,12.02
2022-12-04T09:38:54.034Z,10.40
2022-12-04T09:41:40.216Z,12.15
2022-12-04T09:44:25.021Z,11.65
2022-12-04T09:47:00.987Z,10.98
2022-12-04T09:49:49.171Z,12.35
2022-12-04T09:52:39.364Z,10.45
2022-12-04T09:55:33.610Z,10.10
2022-12-04T09:58:04.404Z,11.13
2022-12-04T10:00:36.811Z,9.20
2022-12-04T10:03:11.748Z,8.85
2022-12-04T10:05:50.692Z,9.65
2022-12-04T10:08:23.273Z,10.18
2022-12-04T10:13:57.634Z,10.02
2022-12-04T10:16:45.766Z,9.40
2022-12-04T10:19:33.709Z,9.90
2022-12-04T10:22:17.332Z,9.40
2022-12-04T10:24:54.615Z,11.23
2022-12-04T10:27:26.346Z,10.05
2022-12-04T10:30:01.722Z,9.77
2022-12-04T10:32:33.518Z,9.07
2022-12-04T10:35:27.069Z,8.37
2022-12-04T10:38:16.319Z,8.82
2022-12-04T10:40:49.006Z,8.75
2022-12-04T10:45:58.679Z,9.07
2022-12-04T10:48:36.168Z,7.95
2022-12-04T10:51:03.447Z,8.77
2022-12-04T10:53:34.754Z,8.88
2022-12-04T10:56:28.168Z,8.83
2022-12-04T10:59:15.818Z,6.40
2022-12-04T11:01:42.899Z,7.32
2022-12-04T11:04:21.390Z,7.07
2022-12-04T11:06:54.767Z,7.43
2022-12-04T11:09:24.834Z,7.95
2022-12-04T11:11:52.783Z,8.23
2022-12-04T11:14:26.641Z,6.80
2022-12-04T11:17:06.448Z,7.30
2022-12-04T11:19:36.397Z,7.25
2022-12-04T11:22:16.091Z,6.70
2022-12-04T11:24:49.683Z,7.05
2022-12-04T11:27:35.440Z,8.98
2022-12-04T11:30:08.557Z,7.28
2022-12-04T11:32:38.864Z,7.97
2022-12-04T11:35:17.570Z,7.53
2022-12-04T11:37:54.628Z,7.25
2022-12-04T11:40:24.717Z,8.85
2022-12-04T11:43:18.896Z,6.85
2022-12-04T11:46:02.470Z,8.40
2022-12-04T11:48:31.664Z,8.13
2022-12-04T11:51:33.961Z,6.70
2022-12-04T11:54:26.209Z,6.70
2022-12-04T11:57:24.505Z,6.90
2022-12-04T12:00:18.555Z,5.97
2022-12-04T12:03:14.026Z,6.15
2022-12-04T12:06:13.933Z,6.28
2022-12-04T12:09:06.652Z,5.82
2022-12-04T12:12:03.318Z,6.65
2022-12-04T12:15:16.864Z,6.60
2022-12-04T12:18:15.335Z,7.78
2022-12-04T12:21:06.874Z,7.60
2022-12-04T12:23:49.268Z,7.63
2022-12-04T12:26:18.772Z,5.95
2022-12-04T12:29:10.717Z,6.65
2022-12-04T12:31:47.689Z,5.05
2022-12-04T12:34:43.126Z,6.13
2022-12-04T12:37:46.732Z,6.40
2022-12-04T12:40:40.017Z,5.95
2022-12-04T12:43:10.155Z,5.15
2022-12-04T12:45:48.592Z,5.30
2022-12-04T12:48:55.111Z,6.30
2022-12-04T12:51:37.064Z,5.80
2022-12-04T12:54:29.126Z,6.40
2022-12-04T12:57:05.874Z,5.93
2022-12-04T12:59:37.365Z,5.97
2022-12-04T13:02:39.964Z,7.00
2022-12-04T13:05:19.479Z,5.13
2022-12-04T13:07:56.104Z,5.07
2022-12-04T13:10:41.879Z,5.15
2022-12-04T13:13:17.283Z,4.85
2022-12-04T13:15:44.746Z,5.78
2022-12-04T13:18:22.771Z,5.47
2022-12-04T13:20:59.742Z,5.60
2022-12-04T13:23:51.291Z,7.40
2022-12-04T13:26:21.339Z,7.87
2022-12-04T13:29:20.549Z,6.80
2022-12-04T13:31:49.321Z,6.30
2022-12-04T13:34:39.158Z,5.60
2022-12-04T13:38:47.165Z,6.70
2022-12-04T13:42:02.066Z,4.90
2022-12-04T13:44:41.303Z,6.10
2022-12-04T13:47:14.290Z,7.80
2022-12-04T13:49:50.347Z,8.07
2022-12-04T13:52:40.068Z,7.20
2022-12-04T13:55:30.196Z,8.10
2022-12-04T13:58:11.170Z,7.25
2022-12-04T14:00:43.222Z,7.25
2022-12-04T14:03:39.796Z,6.63
2022-12-04T14:06:32.652Z,8.32
2022-12-04T14:09:16.792Z,10.45
2022-12-04T14:11:57.839Z,8.60
2022-12-04T14:14:45.809Z,10.80
2022-12-04T14:17:32.097Z,8.57
2022-12-04T14:20:09.867Z,10.80
2022-12-04T14:22:43.516Z,9.77
2022-12-04T14:25:16.711Z,9.38
2022-12-04T14:27:51.842Z,8.80
2022-12-04T14:30:32.605Z,10.73
2022-12-04T14:33:09.408Z,8.90
2022-12-04T14:35:46.218Z,11.32
2022-12-04T14:38:20.163Z,9.43
2022-12-04T14:40:50.763Z,8.85
2022-12-04T14:43:27.188Z,10.57
2022-12-04T14:46:10.307Z,9.90
2022-12-04T14:51:47.314Z,9.88
2022-12-04T14:54:49.293Z,9.75
2022-12-04T14:57:17.287Z,9.20
2022-12-04T15:00:05.038Z,9.50
2022-12-04T15:02:38.301Z,9.88
2022-12-04T15:05:10.604Z,10.13
2022-12-04T15:07:45.363Z,9.25
2022-12-04T15:10:50.033Z,12.57
2022-12-04T15:13:31.475Z,12.82
2022-12-04T15:15:58.830Z,13.27
2022-12-04T15:18:28.185Z,13.15
2022-12-04T15:21:00.096Z,11.32
2022-12-04T15:23:40.472Z,12.00
2022-12-04T15:26:18.921Z,11.27
2022-12-04T15:28:58.252Z,11.15
2022-12-04T15:31:28.311Z,12.07
2022-12-04T15:34:03.407Z,13.85
2022-12-04T15:36:43.057Z,11.82
2022-12-04T15:39:20.507Z,10.95
2022-12-04T15:41:48.418Z,10.63
2022-12-04T15:44:30.219Z,13.57
2022-12-04T15:47:25.472Z,13.27
2022-12-04T15:50:09.485Z,11.75
2022-12-04T15:52:41.317Z,12.35
2022-12-04T15:55:13.414Z,13.00
2022-12-04T15:57:42.736Z,13.52
2022-12-04T16:00:32.935Z,13.63
2022-12-04T16:03:07.204Z,14.27
2022-12-04T16:05:36.925Z,12.25
2022-12-04T16:08:24.735Z,12.65
2022-12-04T16:11:05.954Z,11.23
2022-12-04T16:13:36.512Z,12.52
2022-12-04T16:16:10.975Z,13.00
2022-12-04T16:18:39.502Z,11.90
2022-12-04T16:21:17.350Z,13.85
2022-12-04T16:23:45.362Z,12.70
2022-12-04T16:26:18.319Z,11.50
2022-12-04T16:28:45.784Z,10.43
2022-12-04T16:31:13.908Z,13.57
2022-12-04T16:33:41.101Z,11.60
2022-12-04T16:36:12.627Z,10.35
2022-12-04T16:38:39.873Z,9.90
2022-12-04T16:41:12.810Z,9.77
2022-12-04T16:43:39.780Z,10.65
2022-12-04T16:46:11.057Z,11.18
2022-12-04T16:48:38.637Z,11.48
2022-12-04T16:51:05.870Z,11.07
2022-12-04T16:53:32.963Z,9.85
2022-12-04T16:56:00.117Z,9.38
2022-12-04T16:58:27.178Z,10.68
2022-12-04T17:00:56.453Z,11.65
2022-12-04T17:03:30.020Z,10.93
2022-12-04T17:05:58.092Z,14.02
2022-12-04T17:08:25.147Z,13.88
2022-12-04T17:10:52.643Z,11.93
2022-12-04T17:13:21.639Z,11.25
2022-12-04T17:15:49.553Z,12.55
2022-12-04T17:18:20.984Z,12.02
2022-12-04T17:20:48.724Z,11.55
2022-12-04T17:23:16.012Z,12.75
2022-12-04T17:25:43.120Z,13.77
2022-12-04T17:28:10.222Z,12.23
2022-12-04T17:30:37.410Z,11.43
2022-12-04T17:33:05.442Z,10.85
2022-12-04T17:35:32.596Z,10.48
2022-12-04T17:38:05.614Z,10.05
2022-12-04T17:40:33.517Z,9.48
2022-12-04T17:43:00.655Z,10.38
2022-12-04T17:45:28.816Z,12.98
2022-12-04T17:47:55.858Z,11.73
2022-12-04T17:50:22.881Z,12.15
2022-12-04T17:52:49.974Z,11.98
2022-12-04T17:55:17.163Z,10.48
2022-12-04T17:57:44.176Z,9.23
2022-12-04T18:00:11.609Z,12.05
2022-12-04T18:02:42.472Z,10.68
2022-12-04T18:05:11.153Z,12.45
2022-12-04T18:07:38.267Z,13.35
2022-12-04T18:10:05.997Z,13.70
2022-12-04T18:12:32.892Z,12.85
2022-12-04T18:14:59.900Z,12.45
2022-12-04T18:17:26.891Z,12.35
2022-12-04T18:20:02.642Z,12.40
2022-12-04T18:22:31.669Z,10.98
2022-12-04T18:24:58.889Z,10.88
2022-12-04T18:27:26.011Z,11.93
2022-12-04T18:29:53.435Z,12.13
2022-12-04T18:32:22.670Z,13.00
2022-12-04T18:34:49.809Z,11.75
2022-12-04T18:37:16.755Z,11.65
2022-12-04T18:39:43.960Z,10.27
2022-12-04T18:42:10.867Z,10.90
2022-12-04T18:44:37.791Z,11.53
2022-12-04T18:47:04.681Z,10.43
2022-12-04T18:49:31.635Z,9.98
2022-12-04T18:51:59.638Z,10.80
2022-12-04T18:54:26.629Z,10.43
2022-12-04T18:56:56.362Z,11.63
2022-12-04T18:59:26.153Z,12.93
2022-12-04T19:01:54.248Z,12.60
2022-12-04T19:04:25.333Z,14.55
2022-12-04T19:06:55.272Z,14.70
2022-12-04T19:09:54.271Z,11.20
2022-12-04T19:12:14.911Z,13.32
2022-12-04T19:14:42.063Z,15.48
2022-12-04T19:17:09.337Z,12.98
2022-12-04T19:19:36.335Z,13.10
2022-12-04T19:22:04.181Z,14.07
2022-12-04T19:24:31.254Z,16.03
2022-12-04T19:26:58.506Z,14.23
2022-12-04T19:29:25.596Z,12.48
2022-12-04T19:31:58.792Z,12.98
2022-12-04T19:34:26.808Z,14.80
2022-12-04T19:36:56.946Z,12.35
2022-12-04T19:39:24.548Z,13.63
2022-12-04T19:41:52.864Z,15.38
2022-12-04T19:44:47.965Z,14.00
2022-12-04T19:47:11.178Z,15.15
2022-12-04T19:49:38.319Z,15.85
2022-12-04T19:52:05.454Z,13.68
2022-12-04T19:54:32.548Z,13.40
2022-12-04T19:56:59.629Z,16.17
2022-12-04T19:59:28.561Z,15.40
2022-12-04T20:01:58.865Z,15.15
2022-12-04T20:04:28.343Z,17.25
2022-12-04T20:06:55.485Z,15.68
2022-12-04T20:09:22.794Z,15.52
2022-12-04T20:11:49.885Z,14.02
2022-12-04T20:14:17.229Z,14.50
2022-12-04T20:16:44.927Z,15.27
2022-12-04T20:19:16.478Z,16.42
2022-12-04T20:21:44.638Z,17.52
2022-12-04T20:24:14.266Z,16.17
2022-12-04T20:26:42.982Z,14.48
2022-12-04T20:29:13.405Z,14.75
2022-12-04T20:31:42.998Z,14.57
2022-12-04T20:34:18.599Z,13.80
2022-12-04T20:36:47.194Z,13.93
2022-12-04T20:39:15.772Z,13.05
2022-12-04T20:41:43.386Z,14.05
2022-12-04T20:44:14.565Z,13.23
2022-12-04T20:46:42.825Z,12.45
2022-12-04T20:49:20.846Z,13.23
2022-12-04T20:51:58.714Z,12.18
2022-12-04T20:54:25.947Z,13.70
2022-12-04T20:56:53.674Z,12.00
2022-12-04T20:59:22.758Z,11.13
2022-12-04T21:01:51.443Z,12.55
2022-12-04T21:04:19.488Z,10.35
2022-12-04T21:06:47.039Z,13.82
2022-12-04T21:09:20.017Z,11.23
2022-12-04T21:11:50.924Z,13.88
2022-12-04T21:14:39.399Z,14.25
2022-12-04T21:17:09.289Z,13.82
2022-12-04T21:19:36.585Z,12.48
2022-12-04T21:22:03.999Z,14.52
2022-12-04T21:24:36.293Z,13.35
2022-12-04T21:27:07.988Z,13.48
2022-12-04T21:29:37.102Z,15.13
2022-12-04T21:32:06.133Z,13.07
2022-12-04T21:34:33.295Z,16.27
2022-12-04T21:37:00.487Z,17.02
2022-12-04T21:39:27.648Z,15.55
2022-12-04T21:42:13.529Z,14.52
2022-12-04T21:44:40.753Z,13.82
2022-12-04T21:47:18.881Z,13.45
2022-12-04T21:49:49.214Z,14.05
2022-12-04T21:52:16.927Z,12.65
2022-12-04T21:54:44.203Z,13.45
2022-12-04T21:57:11.246Z,12.40
2022-12-04T21:59:38.267Z,13.45
2022-12-04T22:02:05.501Z,13.70
2022-12-04T22:04:32.615Z,13.45
2022-12-04T22:06:59.664Z,13.18
2022-12-04T22:09:26.989Z,12.10
2022-12-04T22:11:58.454Z,13.57
2022-12-04T22:14:28.042Z,14.20
2022-12-04T22:16:59.197Z,14.25
2022-12-04T22:19:26.321Z,13.63
2022-12-04T22:21:56.280Z,13.77
2022-12-04T22:24:32.301Z,13.82
2022-12-04T22:27:01.847Z,13.70
2022-12-04T22:32:17.905Z,11.57
2022-12-04T22:34:49.172Z,11.45
2022-12-04T22:37:18.816Z,11.52
2022-12-04T22:39:45.700Z,11.32
2022-12-04T22:42:12.591Z,11.65
2022-12-04T22:44:39.460Z,12.93
2022-12-04T22:47:06.599Z,11.60
2022-12-04T22:49:33.631Z,13.63
2022-12-04T22:52:00.876Z,13.48
2022-12-04T22:54:29.828Z,14.30
2022-12-04T22:56:57.846Z,15.32
2022-12-04T22:59:27.243Z,13.75
2022-12-04T23:02:01.546Z,13.50
2022-12-04T23:04:28.977Z,15.88
2022-12-04T23:06:58.147Z,14.68
2022-12-04T23:09:28.490Z,12.98
2022-12-04T23:11:56.462Z,13.45
2022-12-04T23:14:32.007Z,12.68
2022-12-04T23:17:00.372Z,13.75
2022-12-04T23:19:31.327Z,13.85
2022-12-04T23:21:58.586Z,16.63
2022-12-04T23:24:28.145Z,16.17
2022-12-04T23:27:00.069Z,15.05
2022-12-04T23:29:51.999Z,14.80
2022-12-04T23:32:16.692Z,13.02
2022-12-04T23:34:43.638Z,12.80
2022-12-04T23:37:10.851Z,12.90
2022-12-04T23:39:40.052Z,12.90
2022-12-04T23:42:09.482Z,11.85
2022-12-04T23:44:42.241Z,11.52
2022-12-04T23:47:11.637Z,11.70
2022-12-04T23:49:41.088Z,13.15
2022-12-04T23:52:08.007Z,13.05
2022-12-04T23:54:37.683Z,12.30
2022-12-04T23:57:04.754Z,11.73
2022-12-04T23:59:31.670Z,11.77
